Terminal Aerodrome Forecast
Issued by NWS

Home | Current Version | Previous Version | Text Only | Print | Product List | Glossary On
Versions: 1 2 3 4 5 6 7 8 9 10 11 12 13 14 15 16 17 18 19 20 21
000
FTUS43 KGRB 181136
TAFRHI
TAF
KRHI 181136Z 1812/1912 23009KT P6SM SCT100 BKN250 WS015/28035KT
     FM181700 25010G17KT P6SM SCT025 OVC090
     FM182300 24005KT P6SM SCT100 BKN250=

USA.gov is the U.S. government's official web portal to all federal, state and local government web resources and services.